createdAt,value
2022-09-22T07:04:13.088Z,97165.53
2022-09-22T07:05:17.488Z,97167.91
2022-09-22T07:21:27.607Z,97161.97
2022-09-22T07:22:28.960Z,97137.16
2022-09-22T07:23:30.438Z,97149.50
2022-09-22T07:24:31.969Z,97160.31
2022-09-22T07:34:45.127Z,97159.81
2022-09-22T07:35:46.554Z,97144.44
2022-09-22T07:36:49.246Z,97154.25
2022-09-22T07:37:56.795Z,97152.19
2022-09-22T07:39:03.637Z,97162.66
2022-09-22T07:49:22.150Z,97147.31
2022-09-22T07:50:23.506Z,97151.25
2022-09-22T07:51:26.524Z,97156.28
2022-09-22T07:52:33.763Z,97147.69
2022-09-22T07:53:35.964Z,97153.25
2022-09-22T07:54:39.640Z,97153.06
2022-09-22T07:55:41.580Z,97144.47
2022-09-22T07:56:44.968Z,97139.50
2022-09-22T07:57:56.445Z,97146.94
2022-09-22T07:58:57.844Z,97151.09
2022-09-22T07:59:59.548Z,97152.38
2022-09-22T08:01:10.933Z,97151.22
2022-09-22T08:02:12.389Z,97152.56
2022-09-22T08:03:13.791Z,97149.91
2022-09-22T08:04:18.737Z,97152.28
2022-09-22T08:05:20.660Z,97155.50
2022-09-22T08:06:23.821Z,97147.31
2022-09-22T08:07:25.341Z,97145.59
2022-09-22T08:08:27.110Z,97129.06
2022-09-22T08:09:29.696Z,97147.03
2022-09-22T08:10:33.802Z,97128.78
2022-09-22T08:11:35.187Z,97148.41
2022-09-22T08:12:37.765Z,97137.81
2022-09-22T08:13:43.670Z,97142.63
2022-09-22T08:14:47.160Z,97141.06
2022-09-22T08:15:53.019Z,97147.75
2022-09-22T08:16:54.498Z,97131.41
2022-09-22T08:17:59.826Z,97141.47
2022-09-22T08:19:10.657Z,97139.59
2022-09-22T08:20:13.483Z,97133.91
2022-09-22T08:21:19.023Z,97140.63
2022-09-22T08:22:20.392Z,97134.22
2022-09-22T08:23:21.776Z,97135.69
2022-09-22T08:24:23.795Z,97125.72
2022-09-22T08:25:25.458Z,97133.63
2022-09-22T08:26:26.943Z,97138.81
2022-09-22T08:27:29.742Z,97125.28
2022-09-22T08:28:31.780Z,97127.28
2022-09-22T08:29:33.211Z,97135.34
2022-09-22T08:30:36.062Z,97138.25
2022-09-22T08:31:41.078Z,97134.22
2022-09-22T08:32:43.015Z,97120.66
2022-09-22T08:33:44.344Z,97137.78
2022-09-22T08:34:46.037Z,97104.84
2022-09-22T08:35:54.472Z,97115.31
2022-09-22T08:36:56.002Z,97135.59
2022-09-22T08:37:57.335Z,97142.28
2022-09-22T08:39:03.630Z,97138.22
2022-09-22T08:40:06.211Z,97141.69
2022-09-22T08:41:29.811Z,97139.75
2022-09-22T08:42:34.022Z,97094.22
2022-09-22T08:43:35.543Z,97117.53
2022-09-22T08:45:04.290Z,97146.03
2022-09-22T08:46:05.948Z,97142.06
2022-09-22T08:47:16.274Z,97149.84
2022-09-22T08:48:43.206Z,97125.31
2022-09-22T08:50:09.964Z,97140.59
2022-09-22T08:51:45.876Z,97116.59
2022-09-22T08:52:54.964Z,97138.88
2022-09-22T08:53:59.714Z,97140.97
2022-09-22T08:55:11.218Z,97132.03
2022-09-22T08:56:24.396Z,97131.53
2022-09-22T08:57:36.870Z,97143.31
2022-09-22T08:58:56.216Z,97127.22
2022-09-22T09:00:19.046Z,97126.63
2022-09-22T09:01:45.565Z,97139.94
2022-09-22T09:03:17.400Z,97137.91
2022-09-22T09:04:43.886Z,97140.34
2022-09-22T09:06:32.991Z,97145.53
2022-09-22T09:07:49.298Z,97128.97
2022-09-22T09:09:09.309Z,97133.50
2022-09-22T09:10:41.840Z,97131.13
2022-09-22T09:30:09.932Z,97136.03
2022-09-22T09:31:28.961Z,97135.13
2022-09-22T09:32:40.116Z,97124.47
2022-09-22T09:33:58.509Z,97094.44
2022-09-22T09:35:02.219Z,97118.50
2022-09-22T09:47:51.628Z,97127.09
2022-09-22T09:49:16.748Z,97120.03
2022-09-22T09:50:19.182Z,97130.75
2022-09-22T09:51:20.567Z,97123.66
2022-09-22T09:58:05.148Z,97137.19
2022-09-22T10:08:50.747Z,97124.94
2022-09-22T10:09:53.775Z,97116.06
2022-09-22T10:10:59.298Z,97131.94
2022-09-22T10:12:04.167Z,97125.00
2022-09-22T10:13:05.493Z,97122.78
2022-09-22T10:14:23.372Z,97129.84
2022-09-22T10:15:26.418Z,97121.22
2022-09-22T10:16:30.580Z,97130.34
2022-09-22T10:17:42.569Z,97126.72
2022-09-22T10:18:44.034Z,97128.09
2022-09-22T10:19:45.461Z,97122.06
2022-09-22T10:21:15.290Z,97115.22
2022-09-22T10:32:03.086Z,97102.63
2022-09-22T10:33:15.890Z,97086.78
2022-09-22T10:34:35.357Z,97104.16
2022-09-22T10:35:36.975Z,97083.00
2022-09-22T10:36:45.606Z,97110.84
2022-09-22T10:37:48.392Z,97109.53
2022-09-22T10:38:50.014Z,97104.56
2022-09-22T10:40:01.285Z,97097.22
2022-09-22T10:41:08.802Z,97092.50
2022-09-22T10:42:34.475Z,97101.78
2022-09-22T10:44:34.653Z,97097.81
2022-09-22T10:57:40.085Z,97096.72
2022-09-22T10:58:44.789Z,97095.84
2022-09-22T11:00:10.727Z,97098.91
2022-09-22T11:01:27.313Z,97096.72
2022-09-22T11:03:04.150Z,97096.75
2022-09-22T11:04:27.416Z,97097.63
2022-09-22T11:05:59.707Z,97103.22
2022-09-22T11:07:25.967Z,97102.03
2022-09-22T11:08:51.908Z,97097.88
2022-09-22T11:10:17.784Z,97096.78
2022-09-22T11:11:46.008Z,97090.25
2022-09-22T11:33:18.974Z,97067.56
2022-09-22T11:34:35.542Z,97067.16
2022-09-22T11:36:04.441Z,97069.44
2022-09-22T11:37:27.566Z,97065.72
2022-09-22T11:57:21.444Z,97047.75
2022-09-22T11:58:27.076Z,97053.00
2022-09-22T11:59:50.908Z,97051.09
2022-09-22T12:01:13.064Z,97064.00
2022-09-22T12:16:42.062Z,97040.41
2022-09-22T12:18:02.681Z,97025.22
2022-09-22T12:19:42.581Z,97038.34
2022-09-22T12:21:00.871Z,97035.63
2022-09-22T12:37:30.056Z,97021.72
2022-09-22T12:38:32.194Z,97017.44
2022-09-22T12:39:46.410Z,97022.59
2022-09-22T12:40:51.284Z,97002.63
2022-09-22T12:42:05.698Z,97024.59
2022-09-22T12:43:15.809Z,97029.34
2022-09-22T12:44:30.333Z,97026.16
2022-09-22T12:45:37.492Z,97017.84
2022-09-22T12:46:42.908Z,97017.34
2022-09-22T12:47:49.740Z,97016.53
2022-09-22T12:48:51.726Z,97021.94
2022-09-22T12:49:57.341Z,97021.91
2022-09-22T12:58:02.563Z,97015.38
2022-09-22T12:59:23.877Z,97010.81
2022-09-22T13:00:41.457Z,97024.84
2022-09-22T13:01:43.204Z,97017.94
2022-09-22T13:02:49.009Z,97012.78
2022-09-22T13:03:51.126Z,97010.22
2022-09-22T13:04:55.541Z,97007.50
2022-09-22T13:06:22.852Z,97007.25
2022-09-22T13:07:35.094Z,97010.16
2022-09-22T13:08:56.404Z,97008.09
2022-09-22T13:10:22.506Z,96998.09
2022-09-22T13:12:08.920Z,97004.00
2022-09-22T13:13:23.753Z,96999.56
2022-09-22T13:14:59.247Z,97007.13
2022-09-22T13:16:05.876Z,96997.97
2022-09-22T13:17:32.366Z,97001.91
2022-09-22T13:18:38.881Z,97000.97
2022-09-22T13:19:55.066Z,96984.91
2022-09-22T13:21:01.734Z,96997.97
2022-09-22T13:22:17.723Z,96993.81
2022-09-22T13:23:19.105Z,96993.53
2022-09-22T13:24:24.992Z,96991.41
2022-09-22T13:25:31.197Z,96996.16
2022-09-22T13:26:39.344Z,96992.91
2022-09-22T13:27:40.665Z,96989.22
2022-09-22T13:28:43.099Z,96991.09
2022-09-22T13:29:57.973Z,96974.28
2022-09-22T13:31:13.015Z,96982.50
2022-09-22T13:32:27.089Z,96990.47
2022-09-22T13:39:05.490Z,96992.50
2022-09-22T13:40:10.312Z,96987.91
2022-09-22T13:41:19.549Z,96992.63
2022-09-22T13:42:34.520Z,96974.44
2022-09-22T13:43:39.454Z,96988.06
2022-09-22T13:44:44.010Z,96986.97
2022-09-22T13:50:22.348Z,96976.09
2022-09-22T13:51:26.017Z,96964.78
2022-09-22T13:52:32.689Z,96971.19
2022-09-22T13:53:34.066Z,96970.59
2022-09-22T13:54:37.497Z,96968.00
2022-09-22T13:55:38.896Z,96936.47
2022-09-22T14:02:04.406Z,96962.53
2022-09-22T14:03:05.878Z,96949.31
2022-09-22T14:04:21.587Z,96968.91
2022-09-22T14:05:33.031Z,96967.47
2022-09-22T14:06:34.514Z,96963.50
2022-09-22T14:07:45.365Z,96966.47
2022-09-22T14:08:52.860Z,96962.69
2022-09-22T14:09:55.821Z,96944.28
2022-09-22T14:10:59.444Z,96963.22
2022-09-22T14:12:01.464Z,96950.53
2022-09-22T14:13:02.887Z,96954.75
2022-09-22T14:14:06.745Z,96968.06
2022-09-22T14:15:33.455Z,96963.91
2022-09-22T14:16:37.025Z,96966.56
2022-09-22T14:17:40.681Z,96957.84
2022-09-22T14:18:48.994Z,96960.78
2022-09-22T14:20:02.230Z,96961.03
2022-09-22T14:26:14.392Z,96961.03
2022-09-22T14:27:51.724Z,96959.25
2022-09-22T14:28:55.170Z,96935.59
2022-09-22T14:29:57.978Z,96957.94
2022-09-22T14:30:59.365Z,96950.31
2022-09-22T14:32:25.809Z,96955.44
2022-09-22T14:33:33.503Z,96943.97
2022-09-22T14:34:35.096Z,96942.66
2022-09-22T14:35:37.264Z,96945.22
2022-09-22T14:36:39.312Z,96947.72
2022-09-22T14:37:45.376Z,96954.31
2022-09-22T14:39:03.247Z,96934.28
2022-09-22T14:40:18.984Z,96925.81
2022-09-22T14:41:25.586Z,96910.50
2022-09-22T14:42:29.510Z,96937.94
2022-09-22T14:43:38.851Z,96941.91
2022-09-22T14:44:49.901Z,96926.78
2022-09-22T14:46:07.310Z,96936.22
2022-09-22T14:47:25.895Z,96942.03
2022-09-22T14:48:28.878Z,96937.00
2022-09-22T14:55:03.808Z,96933.97
2022-09-22T14:56:32.745Z,96932.06
2022-09-22T14:57:35.707Z,96938.00
2022-09-22T14:58:40.799Z,96936.31
2022-09-22T15:00:06.416Z,96938.47
2022-09-22T15:01:45.137Z,96930.06
2022-09-22T15:02:53.930Z,96927.41
2022-09-22T15:04:06.117Z,96931.25
2022-09-22T15:05:11.757Z,96933.66
2022-09-22T15:06:14.489Z,96905.06
2022-09-22T15:13:05.143Z,96919.56
2022-09-22T15:14:42.668Z,96901.56
2022-09-22T15:15:46.538Z,96922.06
2022-09-22T15:16:48.022Z,96921.34
2022-09-22T15:18:15.132Z,96916.34
2022-09-22T15:19:16.479Z,96894.31
2022-09-22T15:20:18.462Z,96917.13
2022-09-22T15:21:51.748Z,96918.56
2022-09-22T15:22:54.116Z,96919.84
2022-09-22T15:23:58.812Z,96924.44
2022-09-22T15:25:00.193Z,96898.88
2022-09-22T15:26:06.005Z,96912.25
2022-09-22T15:27:08.020Z,96887.38
2022-09-22T15:28:19.642Z,96917.75
2022-09-22T15:29:21.038Z,96908.78
2022-09-22T15:30:22.437Z,96902.75
2022-09-22T15:31:26.904Z,96912.59
2022-09-22T15:32:29.060Z,96912.50
2022-09-22T15:33:30.762Z,96906.63
2022-09-22T15:34:32.142Z,96890.00
2022-09-22T15:35:37.857Z,96906.13
2022-09-22T15:36:45.770Z,96896.53
2022-09-22T15:37:49.987Z,96907.69
2022-09-22T15:38:57.904Z,96895.41
2022-09-22T15:40:00.567Z,96886.41
2022-09-22T15:41:01.928Z,96914.22
2022-09-22T15:42:06.373Z,96898.38
2022-09-22T15:43:20.382Z,96907.06
2022-09-22T15:44:26.017Z,96909.03
2022-09-22T15:45:28.298Z,96911.09
2022-09-22T15:46:37.751Z,96906.53
2022-09-22T15:47:39.496Z,96904.84
2022-09-22T15:48:40.837Z,96898.38
2022-09-22T15:49:44.937Z,96901.56
2022-09-22T15:50:46.468Z,96897.38
2022-09-22T15:51:49.332Z,96889.28
2022-09-22T15:52:50.732Z,96896.78
2022-09-22T15:53:53.066Z,96868.88
2022-09-22T15:54:55.153Z,96894.03
2022-09-22T15:55:58.622Z,96895.38
2022-09-22T15:57:00.457Z,96895.53
2022-09-22T15:58:07.324Z,96896.91
2022-09-22T15:59:16.224Z,96886.31
2022-09-22T16:00:20.939Z,96894.38
2022-09-22T16:01:22.336Z,96893.22
2022-09-22T16:02:25.519Z,96883.44
2022-09-22T16:03:27.484Z,96894.97
2022-09-22T16:04:33.819Z,96893.50
2022-09-22T16:05:35.973Z,96877.03
2022-09-22T16:06:39.593Z,96890.66
2022-09-22T16:07:44.960Z,96886.66
2022-09-22T16:08:49.023Z,96874.09
2022-09-22T16:09:54.128Z,96889.06
2022-09-22T16:10:56.746Z,96889.06
2022-09-22T16:11:58.104Z,96881.16
2022-09-22T16:12:59.543Z,96882.06
2022-09-22T16:14:03.586Z,96879.16
2022-09-22T16:15:06.517Z,96888.16
2022-09-22T16:16:09.351Z,96884.13
2022-09-22T16:17:10.879Z,96885.41
2022-09-22T16:18:12.214Z,96878.84
2022-09-22T16:19:13.604Z,96867.28
2022-09-22T16:20:16.860Z,96871.94
2022-09-22T16:21:33.182Z,96887.28
2022-09-22T16:22:35.794Z,96853.94
2022-09-22T16:23:37.125Z,96889.91
2022-09-22T16:24:38.594Z,96890.00
2022-09-22T16:25:42.040Z,96867.00
2022-09-22T16:26:43.422Z,96888.66
2022-09-22T16:27:48.143Z,96882.25
2022-09-22T16:28:49.593Z,96867.06
2022-09-22T16:29:50.965Z,96860.94
2022-09-22T16:30:52.306Z,96880.63
2022-09-22T16:31:54.047Z,96893.59
2022-09-22T16:32:55.782Z,96885.88
2022-09-22T16:34:00.160Z,96885.00
2022-09-22T16:35:03.185Z,96888.22
2022-09-22T16:36:05.008Z,96878.09
2022-09-22T16:37:06.401Z,96862.16
2022-09-22T16:38:07.853Z,96881.78
2022-09-22T16:39:09.297Z,96884.97
2022-09-22T16:40:10.769Z,96877.16
2022-09-22T16:41:24.594Z,96895.63
2022-09-22T16:42:25.969Z,96894.09
2022-09-22T16:43:27.374Z,96887.75
2022-09-22T16:44:31.626Z,96888.44
2022-09-22T16:45:51.680Z,96890.63
2022-09-22T16:46:53.029Z,96879.13
2022-09-22T16:47:54.713Z,96889.16
2022-09-22T16:49:08.045Z,96890.91
2022-09-22T16:50:10.131Z,96876.41
2022-09-22T16:51:16.226Z,96890.03
2022-09-22T16:52:20.186Z,96880.81
2022-09-22T16:53:27.285Z,96890.69
2022-09-22T16:54:28.689Z,96894.03
2022-09-22T16:55:30.206Z,96896.91
2022-09-22T16:56:33.818Z,96889.09
2022-09-22T16:57:35.215Z,96884.22
2022-09-22T16:58:36.691Z,96890.50
2022-09-22T16:59:38.022Z,96891.66
2022-09-22T17:00:39.390Z,96888.59
2022-09-22T17:01:43.601Z,96892.28
2022-09-22T17:02:46.692Z,96878.00
2022-09-22T17:03:54.464Z,96892.31
2022-09-22T17:04:55.888Z,96894.78
2022-09-22T17:06:08.600Z,96870.41
2022-09-22T17:07:10.182Z,96885.47
2022-09-22T17:08:11.537Z,96886.75
2022-09-22T17:09:14.462Z,96887.69
2022-09-22T17:10:16.025Z,96892.81
2022-09-22T17:11:17.933Z,96881.69
2022-09-22T17:12:19.960Z,96892.19
2022-09-22T17:13:30.933Z,96888.72
2022-09-22T17:14:32.563Z,96887.59
2022-09-22T17:15:35.745Z,96882.72
2022-09-22T17:16:39.608Z,96892.75
2022-09-22T17:17:41.130Z,96881.50
2022-09-22T17:18:42.859Z,96873.97
2022-09-22T17:19:48.155Z,96878.38
2022-09-22T17:20:50.807Z,96888.34
2022-09-22T17:21:55.225Z,96887.59
2022-09-22T17:22:57.290Z,96852.41
2022-09-22T17:24:01.917Z,96872.59
2022-09-22T17:31:57.342Z,96872.22
